sensor_id;sensor_type;location;lat;lon;timestamp;P1;durP1;ratioP1;P2;durP2;ratioP2
13374;SDS011;6756;51.354;15.754;2023-05-29T00:04:00;2.90;;;2.17;;
13374;SDS011;6756;51.354;15.754;2023-05-29T00:08:02;2.83;;;2.23;;
13374;SDS011;6756;51.354;15.754;2023-05-29T00:12:03;3.07;;;2.10;;
13374;SDS011;6756;51.354;15.754;2023-05-29T00:16:05;3.03;;;2.23;;
13374;SDS011;6756;51.354;15.754;2023-05-29T00:20:10;3.33;;;1.90;;
13374;SDS011;6756;51.354;15.754;2023-05-29T00:24:14;3.43;;;2.23;;
13374;SDS011;6756;51.354;15.754;2023-05-29T00:28:16;3.20;;;2.00;;
13374;SDS011;6756;51.354;15.754;2023-05-29T00:32:17;5.53;;;2.60;;
13374;SDS011;6756;51.354;15.754;2023-05-29T00:36:18;3.40;;;2.00;;
13374;SDS011;6756;51.354;15.754;2023-05-29T00:40:19;2.10;;;1.50;;
13374;SDS011;6756;51.354;15.754;2023-05-29T00:44:22;2.90;;;1.97;;
13374;SDS011;6756;51.354;15.754;2023-05-29T00:48:24;2.87;;;1.77;;
13374;SDS011;6756;51.354;15.754;2023-05-29T00:52:26;2.60;;;1.53;;
13374;SDS011;6756;51.354;15.754;2023-05-29T00:56:27;2.63;;;1.73;;
13374;SDS011;6756;51.354;15.754;2023-05-29T01:00:28;2.10;;;1.90;;
13374;SDS011;6756;51.354;15.754;2023-05-29T01:04:30;2.57;;;1.57;;
13374;SDS011;6756;51.354;15.754;2023-05-29T01:08:35;2.57;;;1.87;;
13374;SDS011;6756;51.354;15.754;2023-05-29T01:17:04;2.60;;;1.90;;
13374;SDS011;6756;51.354;15.754;2023-05-29T01:29:42;2.27;;;1.80;;
13374;SDS011;6756;51.354;15.754;2023-05-29T01:37:58;2.60;;;1.77;;
13374;SDS011;6756;51.354;15.754;2023-05-29T01:41:59;3.07;;;2.17;;
13374;SDS011;6756;51.354;15.754;2023-05-29T01:46:01;2.90;;;2.10;;
13374;SDS011;6756;51.354;15.754;2023-05-29T01:50:03;3.10;;;2.23;;
13374;SDS011;6756;51.354;15.754;2023-05-29T01:54:04;3.27;;;1.90;;
13374;SDS011;6756;51.354;15.754;2023-05-29T01:58:05;2.80;;;2.03;;
13374;SDS011;6756;51.354;15.754;2023-05-29T02:02:08;2.87;;;1.70;;
13374;SDS011;6756;51.354;15.754;2023-05-29T02:06:09;3.97;;;1.93;;
13374;SDS011;6756;51.354;15.754;2023-05-29T02:10:13;3.67;;;1.77;;
13374;SDS011;6756;51.354;15.754;2023-05-29T02:14:17;2.27;;;1.93;;
13374;SDS011;6756;51.354;15.754;2023-05-29T02:18:18;4.57;;;2.30;;
13374;SDS011;6756;51.354;15.754;2023-05-29T02:22:20;3.07;;;2.37;;
13374;SDS011;6756;51.354;15.754;2023-05-29T02:26:21;4.70;;;2.47;;
13374;SDS011;6756;51.354;15.754;2023-05-29T02:30:23;5.93;;;3.07;;
13374;SDS011;6756;51.354;15.754;2023-05-29T02:34:24;3.50;;;2.37;;
13374;SDS011;6756;51.354;15.754;2023-05-29T02:38:28;2.67;;;2.10;;
13374;SDS011;6756;51.354;15.754;2023-05-29T02:42:28;5.10;;;2.43;;
13374;SDS011;6756;51.354;15.754;2023-05-29T02:46:29;4.90;;;3.00;;
13374;SDS011;6756;51.354;15.754;2023-05-29T02:50:30;4.43;;;2.63;;
13374;SDS011;6756;51.354;15.754;2023-05-29T02:54:37;5.43;;;3.57;;
13374;SDS011;6756;51.354;15.754;2023-05-29T02:58:38;5.23;;;2.70;;
13374;SDS011;6756;51.354;15.754;2023-05-29T03:02:39;3.60;;;3.00;;
13374;SDS011;6756;51.354;15.754;2023-05-29T03:06:40;4.67;;;2.63;;
13374;SDS011;6756;51.354;15.754;2023-05-29T03:10:41;4.90;;;2.87;;
13374;SDS011;6756;51.354;15.754;2023-05-29T03:14:44;5.97;;;3.10;;
13374;SDS011;6756;51.354;15.754;2023-05-29T03:18:45;3.67;;;2.90;;
13374;SDS011;6756;51.354;15.754;2023-05-29T03:22:46;6.07;;;3.63;;
13374;SDS011;6756;51.354;15.754;2023-05-29T03:26:48;4.93;;;3.17;;
13374;SDS011;6756;51.354;15.754;2023-05-29T03:30:55;3.97;;;3.20;;
13374;SDS011;6756;51.354;15.754;2023-05-29T03:34:56;4.23;;;3.20;;
13374;SDS011;6756;51.354;15.754;2023-05-29T03:39:00;6.73;;;3.40;;
13374;SDS011;6756;51.354;15.754;2023-05-29T03:43:03;3.87;;;2.80;;
13374;SDS011;6756;51.354;15.754;2023-05-29T03:47:05;4.20;;;2.73;;
13374;SDS011;6756;51.354;15.754;2023-05-29T03:51:06;3.63;;;2.60;;
13374;SDS011;6756;51.354;15.754;2023-05-29T03:55:08;3.27;;;2.50;;
13374;SDS011;6756;51.354;15.754;2023-05-29T03:59:13;3.33;;;2.90;;
13374;SDS011;6756;51.354;15.754;2023-05-29T04:03:17;6.00;;;2.77;;
13374;SDS011;6756;51.354;15.754;2023-05-29T04:07:18;5.63;;;3.27;;
13374;SDS011;6756;51.354;15.754;2023-05-29T04:11:27;6.10;;;3.07;;
13374;SDS011;6756;51.354;15.754;2023-05-29T04:15:29;3.90;;;3.07;;
13374;SDS011;6756;51.354;15.754;2023-05-29T04:19:33;6.53;;;2.97;;
13374;SDS011;6756;51.354;15.754;2023-05-29T04:23:34;5.50;;;3.33;;
13374;SDS011;6756;51.354;15.754;2023-05-29T04:27:35;8.13;;;3.50;;
13374;SDS011;6756;51.354;15.754;2023-05-29T04:31:42;8.47;;;3.67;;
13374;SDS011;6756;51.354;15.754;2023-05-29T04:35:53;4.53;;;3.40;;
13374;SDS011;6756;51.354;15.754;2023-05-29T04:40:08;5.00;;;3.30;;
13374;SDS011;6756;51.354;15.754;2023-05-29T04:44:20;5.17;;;3.10;;
13374;SDS011;6756;51.354;15.754;2023-05-29T04:48:26;5.43;;;3.57;;
13374;SDS011;6756;51.354;15.754;2023-05-29T04:52:31;6.30;;;3.93;;
13374;SDS011;6756;51.354;15.754;2023-05-29T04:56:37;4.20;;;2.93;;
13374;SDS011;6756;51.354;15.754;2023-05-29T05:00:41;4.07;;;3.23;;
13374;SDS011;6756;51.354;15.754;2023-05-29T05:04:43;6.10;;;3.73;;
13374;SDS011;6756;51.354;15.754;2023-05-29T05:08:46;5.50;;;3.50;;
13374;SDS011;6756;51.354;15.754;2023-05-29T05:12:47;5.33;;;3.57;;
13374;SDS011;6756;51.354;15.754;2023-05-29T05:16:48;5.23;;;3.70;;
13374;SDS011;6756;51.354;15.754;2023-05-29T05:20:49;5.70;;;4.03;;
13374;SDS011;6756;51.354;15.754;2023-05-29T05:24:50;7.77;;;4.40;;
13374;SDS011;6756;51.354;15.754;2023-05-29T05:28:53;9.50;;;3.90;;
13374;SDS011;6756;51.354;15.754;2023-05-29T05:32:55;6.53;;;4.27;;
13374;SDS011;6756;51.354;15.754;2023-05-29T05:36:56;6.47;;;3.97;;
13374;SDS011;6756;51.354;15.754;2023-05-29T05:40:57;7.50;;;3.90;;
13374;SDS011;6756;51.354;15.754;2023-05-29T05:45:03;7.47;;;4.07;;
13374;SDS011;6756;51.354;15.754;2023-05-29T05:49:06;8.00;;;3.77;;
13374;SDS011;6756;51.354;15.754;2023-05-29T05:53:07;8.63;;;3.73;;
13374;SDS011;6756;51.354;15.754;2023-05-29T05:57:11;5.43;;;3.17;;
13374;SDS011;6756;51.354;15.754;2023-05-29T06:01:13;7.90;;;3.63;;
13374;SDS011;6756;51.354;15.754;2023-05-29T06:05:21;6.77;;;3.83;;
13374;SDS011;6756;51.354;15.754;2023-05-29T06:09:22;7.97;;;3.53;;
13374;SDS011;6756;51.354;15.754;2023-05-29T06:13:25;3.90;;;3.43;;
13374;SDS011;6756;51.354;15.754;2023-05-29T06:17:26;6.37;;;3.37;;
13374;SDS011;6756;51.354;15.754;2023-05-29T06:21:31;5.50;;;3.77;;
13374;SDS011;6756;51.354;15.754;2023-05-29T06:25:32;5.43;;;3.80;;
13374;SDS011;6756;51.354;15.754;2023-05-29T06:29:33;7.47;;;3.90;;
13374;SDS011;6756;51.354;15.754;2023-05-29T06:33:37;7.23;;;3.43;;
13374;SDS011;6756;51.354;15.754;2023-05-29T06:37:39;5.30;;;3.50;;
13374;SDS011;6756;51.354;15.754;2023-05-29T06:41:43;6.83;;;3.77;;
13374;SDS011;6756;51.354;15.754;2023-05-29T06:45:46;7.03;;;3.53;;
13374;SDS011;6756;51.354;15.754;2023-05-29T06:49:47;5.33;;;3.03;;
13374;SDS011;6756;51.354;15.754;2023-05-29T06:53:51;7.30;;;3.63;;
13374;SDS011;6756;51.354;15.754;2023-05-29T06:57:52;5.53;;;2.90;;
13374;SDS011;6756;51.354;15.754;2023-05-29T07:01:53;6.23;;;3.23;;
13374;SDS011;6756;51.354;15.754;2023-05-29T07:05:54;5.00;;;3.33;;
13374;SDS011;6756;51.354;15.754;2023-05-29T07:09:56;5.37;;;3.00;;
13374;SDS011;6756;51.354;15.754;2023-05-29T07:13:56;7.07;;;3.23;;
13374;SDS011;6756;51.354;15.754;2023-05-29T07:17:58;6.33;;;4.07;;
13374;SDS011;6756;51.354;15.754;2023-05-29T07:21:59;3.87;;;2.80;;
13374;SDS011;6756;51.354;15.754;2023-05-29T07:26:00;4.17;;;2.77;;
13374;SDS011;6756;51.354;15.754;2023-05-29T07:30:02;4.43;;;2.47;;
13374;SDS011;6756;51.354;15.754;2023-05-29T07:34:05;4.27;;;2.70;;
13374;SDS011;6756;51.354;15.754;2023-05-29T07:38:09;4.13;;;2.40;;
13374;SDS011;6756;51.354;15.754;2023-05-29T07:42:10;4.07;;;2.20;;
13374;SDS011;6756;51.354;15.754;2023-05-29T07:46:11;4.53;;;2.20;;
13374;SDS011;6756;51.354;15.754;2023-05-29T07:50:13;7.40;;;2.20;;
13374;SDS011;6756;51.354;15.754;2023-05-29T07:54:16;6.20;;;2.00;;
13374;SDS011;6756;51.354;15.754;2023-05-29T07:58:20;3.83;;;1.77;;
13374;SDS011;6756;51.354;15.754;2023-05-29T08:02:21;4.10;;;2.17;;
13374;SDS011;6756;51.354;15.754;2023-05-29T08:06:22;3.77;;;2.13;;
13374;SDS011;6756;51.354;15.754;2023-05-29T08:10:23;4.60;;;1.80;;
13374;SDS011;6756;51.354;15.754;2023-05-29T08:14:25;3.10;;;1.90;;
13374;SDS011;6756;51.354;15.754;2023-05-29T08:18:26;4.07;;;1.93;;
13374;SDS011;6756;51.354;15.754;2023-05-29T08:22:27;6.20;;;1.77;;
13374;SDS011;6756;51.354;15.754;2023-05-29T08:26:30;1.77;;;1.50;;
13374;SDS011;6756;51.354;15.754;2023-05-29T08:30:31;5.73;;;1.60;;
13374;SDS011;6756;51.354;15.754;2023-05-29T08:34:32;4.13;;;1.70;;
13374;SDS011;6756;51.354;15.754;2023-05-29T08:38:33;2.30;;;1.30;;
13374;SDS011;6756;51.354;15.754;2023-05-29T08:42:35;4.57;;;1.90;;
13374;SDS011;6756;51.354;15.754;2023-05-29T08:46:45;2.20;;;1.40;;
13374;SDS011;6756;51.354;15.754;2023-05-29T08:50:47;2.03;;;1.50;;
13374;SDS011;6756;51.354;15.754;2023-05-29T08:54:48;5.47;;;1.50;;
13374;SDS011;6756;51.354;15.754;2023-05-29T08:58:49;3.17;;;1.50;;
13374;SDS011;6756;51.354;15.754;2023-05-29T09:02:52;2.90;;;1.60;;
13374;SDS011;6756;51.354;15.754;2023-05-29T09:07:03;3.17;;;1.70;;
13374;SDS011;6756;51.354;15.754;2023-05-29T09:11:05;6.53;;;1.97;;
13374;SDS011;6756;51.354;15.754;2023-05-29T09:15:16;3.13;;;1.60;;
13374;SDS011;6756;51.354;15.754;2023-05-29T09:19:21;4.73;;;1.90;;
13374;SDS011;6756;51.354;15.754;2023-05-29T09:23:24;2.67;;;1.70;;
13374;SDS011;6756;51.354;15.754;2023-05-29T09:27:26;7.17;;;2.00;;
13374;SDS011;6756;51.354;15.754;2023-05-29T09:31:36;3.80;;;1.60;;
13374;SDS011;6756;51.354;15.754;2023-05-29T09:35:48;4.17;;;1.80;;
13374;SDS011;6756;51.354;15.754;2023-05-29T09:39:50;3.20;;;1.70;;
13374;SDS011;6756;51.354;15.754;2023-05-29T09:43:54;3.83;;;1.50;;
13374;SDS011;6756;51.354;15.754;2023-05-29T09:47:56;2.73;;;1.50;;
13374;SDS011;6756;51.354;15.754;2023-05-29T09:51:58;6.20;;;1.93;;
13374;SDS011;6756;51.354;15.754;2023-05-29T09:56:00;5.07;;;2.13;;
13374;SDS011;6756;51.354;15.754;2023-05-29T10:00:06;2.23;;;1.47;;
13374;SDS011;6756;51.354;15.754;2023-05-29T10:04:15;2.37;;;1.80;;
13374;SDS011;6756;51.354;15.754;2023-05-29T10:08:19;3.70;;;1.97;;
13374;SDS011;6756;51.354;15.754;2023-05-29T10:12:21;2.77;;;1.70;;
13374;SDS011;6756;51.354;15.754;2023-05-29T10:16:23;4.13;;;1.90;;
13374;SDS011;6756;51.354;15.754;2023-05-29T10:20:24;4.20;;;1.87;;
13374;SDS011;6756;51.354;15.754;2023-05-29T10:24:29;7.50;;;2.23;;
13374;SDS011;6756;51.354;15.754;2023-05-29T10:28:31;3.90;;;2.20;;
13374;SDS011;6756;51.354;15.754;2023-05-29T10:37:00;5.97;;;2.40;;
13374;SDS011;6756;51.354;15.754;2023-05-29T10:49:31;3.70;;;1.97;;
13374;SDS011;6756;51.354;15.754;2023-05-29T10:53:33;4.88;;;2.20;;
13374;SDS011;6756;51.354;15.754;2023-05-29T10:57:34;2.83;;;2.03;;
13374;SDS011;6756;51.354;15.754;2023-05-29T11:01:40;4.07;;;2.40;;
13374;SDS011;6756;51.354;15.754;2023-05-29T11:10:11;5.85;;;2.65;;
13374;SDS011;6756;51.354;15.754;2023-05-29T11:14:14;5.10;;;2.25;;
13374;SDS011;6756;51.354;15.754;2023-05-29T11:18:14;7.55;;;2.20;;
13374;SDS011;6756;51.354;15.754;2023-05-29T11:22:21;5.20;;;3.00;;
13374;SDS011;6756;51.354;15.754;2023-05-29T11:26:37;5.30;;;2.50;;
13374;SDS011;6756;51.354;15.754;2023-05-29T11:30:42;3.13;;;2.13;;
13374;SDS011;6756;51.354;15.754;2023-05-29T11:34:45;11.43;;;5.97;;
13374;SDS011;6756;51.354;15.754;2023-05-29T11:38:52;3.67;;;2.43;;
13374;SDS011;6756;51.354;15.754;2023-05-29T11:42:54;3.93;;;2.37;;
13374;SDS011;6756;51.354;15.754;2023-05-29T11:47:06;3.87;;;2.37;;
13374;SDS011;6756;51.354;15.754;2023-05-29T11:51:10;3.87;;;2.50;;
13374;SDS011;6756;51.354;15.754;2023-05-29T11:55:11;7.37;;;2.67;;
13374;SDS011;6756;51.354;15.754;2023-05-29T11:59:12;6.47;;;2.57;;
13374;SDS011;6756;51.354;15.754;2023-05-29T12:03:14;4.27;;;2.70;;
13374;SDS011;6756;51.354;15.754;2023-05-29T12:07:19;5.90;;;3.40;;
13374;SDS011;6756;51.354;15.754;2023-05-29T12:11:23;5.67;;;3.10;;
13374;SDS011;6756;51.354;15.754;2023-05-29T12:15:25;4.73;;;2.37;;
13374;SDS011;6756;51.354;15.754;2023-05-29T12:19:27;4.73;;;2.30;;
13374;SDS011;6756;51.354;15.754;2023-05-29T12:23:28;3.73;;;2.50;;
13374;SDS011;6756;51.354;15.754;2023-05-29T12:27:33;5.47;;;3.30;;
13374;SDS011;6756;51.354;15.754;2023-05-29T12:31:37;7.23;;;4.57;;
13374;SDS011;6756;51.354;15.754;2023-05-29T12:35:39;6.97;;;2.37;;
13374;SDS011;6756;51.354;15.754;2023-05-29T12:39:40;4.53;;;2.13;;
13374;SDS011;6756;51.354;15.754;2023-05-29T12:43:41;3.97;;;2.57;;
13374;SDS011;6756;51.354;15.754;2023-05-29T12:56:56;4.78;;;2.65;;
13374;SDS011;6756;51.354;15.754;2023-05-29T13:01:01;5.07;;;2.63;;
13374;SDS011;6756;51.354;15.754;2023-05-29T13:05:02;7.20;;;2.67;;
13374;SDS011;6756;51.354;15.754;2023-05-29T13:09:06;3.78;;;2.33;;
13374;SDS011;6756;51.354;15.754;2023-05-29T13:13:08;6.27;;;2.90;;
13374;SDS011;6756;51.354;15.754;2023-05-29T13:17:12;4.10;;;2.13;;
13374;SDS011;6756;51.354;15.754;2023-05-29T13:21:13;4.27;;;3.00;;
13374;SDS011;6756;51.354;15.754;2023-05-29T13:25:16;4.73;;;2.33;;
13374;SDS011;6756;51.354;15.754;2023-05-29T13:29:20;4.87;;;2.47;;
13374;SDS011;6756;51.354;15.754;2023-05-29T13:33:21;4.53;;;2.20;;
13374;SDS011;6756;51.354;15.754;2023-05-29T13:37:22;4.35;;;2.72;;
13374;SDS011;6756;51.354;15.754;2023-05-29T13:41:24;4.22;;;2.70;;
13374;SDS011;6756;51.354;15.754;2023-05-29T13:45:25;6.53;;;2.78;;
13374;SDS011;6756;51.354;15.754;2023-05-29T13:49:27;6.47;;;2.97;;
13374;SDS011;6756;51.354;15.754;2023-05-29T13:53:30;3.08;;;2.35;;
13374;SDS011;6756;51.354;15.754;2023-05-29T13:57:34;8.00;;;3.25;;
13374;SDS011;6756;51.354;15.754;2023-05-29T14:01:38;5.45;;;2.80;;
13374;SDS011;6756;51.354;15.754;2023-05-29T14:05:39;5.07;;;2.67;;
13374;SDS011;6756;51.354;15.754;2023-05-29T14:09:39;3.73;;;2.50;;
13374;SDS011;6756;51.354;15.754;2023-05-29T14:13:41;5.63;;;2.70;;
13374;SDS011;6756;51.354;15.754;2023-05-29T14:17:42;6.90;;;2.87;;
13374;SDS011;6756;51.354;15.754;2023-05-29T14:21:43;5.23;;;2.70;;
13374;SDS011;6756;51.354;15.754;2023-05-29T14:25:45;4.23;;;2.50;;
13374;SDS011;6756;51.354;15.754;2023-05-29T14:29:46;5.43;;;2.80;;
13374;SDS011;6756;51.354;15.754;2023-05-29T14:33:53;4.57;;;2.73;;
13374;SDS011;6756;51.354;15.754;2023-05-29T14:37:54;5.67;;;3.20;;
13374;SDS011;6756;51.354;15.754;2023-05-29T14:42:00;4.30;;;2.70;;
13374;SDS011;6756;51.354;15.754;2023-05-29T14:46:03;3.83;;;2.70;;
13374;SDS011;6756;51.354;15.754;2023-05-29T14:50:07;5.50;;;2.80;;
13374;SDS011;6756;51.354;15.754;2023-05-29T14:54:09;3.20;;;2.40;;
13374;SDS011;6756;51.354;15.754;2023-05-29T14:58:11;4.03;;;2.43;;
13374;SDS011;6756;51.354;15.754;2023-05-29T15:02:14;5.97;;;2.90;;
13374;SDS011;6756;51.354;15.754;2023-05-29T15:06:18;5.00;;;2.73;;
13374;SDS011;6756;51.354;15.754;2023-05-29T15:10:19;7.03;;;3.23;;
13374;SDS011;6756;51.354;15.754;2023-05-29T15:14:21;4.63;;;2.50;;
13374;SDS011;6756;51.354;15.754;2023-05-29T15:18:26;4.07;;;2.67;;
13374;SDS011;6756;51.354;15.754;2023-05-29T15:22:29;4.93;;;2.67;;
13374;SDS011;6756;51.354;15.754;2023-05-29T15:26:30;4.50;;;2.60;;
13374;SDS011;6756;51.354;15.754;2023-05-29T15:30:31;3.20;;;2.67;;
13374;SDS011;6756;51.354;15.754;2023-05-29T15:34:32;4.07;;;2.47;;
13374;SDS011;6756;51.354;15.754;2023-05-29T15:38:34;5.17;;;3.27;;
13374;SDS011;6756;51.354;15.754;2023-05-29T15:42:35;5.90;;;3.97;;
13374;SDS011;6756;51.354;15.754;2023-05-29T15:46:36;6.60;;;3.67;;
13374;SDS011;6756;51.354;15.754;2023-05-29T15:50:38;4.93;;;2.73;;
13374;SDS011;6756;51.354;15.754;2023-05-29T15:54:39;6.03;;;3.30;;
13374;SDS011;6756;51.354;15.754;2023-05-29T15:58:40;3.97;;;2.90;;
13374;SDS011;6756;51.354;15.754;2023-05-29T16:02:41;3.80;;;2.90;;
13374;SDS011;6756;51.354;15.754;2023-05-29T16:06:43;3.53;;;2.73;;
13374;SDS011;6756;51.354;15.754;2023-05-29T16:10:44;5.87;;;2.70;;
13374;SDS011;6756;51.354;15.754;2023-05-29T16:14:45;6.47;;;2.80;;
13374;SDS011;6756;51.354;15.754;2023-05-29T16:18:49;6.77;;;3.27;;
13374;SDS011;6756;51.354;15.754;2023-05-29T16:22:50;8.53;;;4.10;;
13374;SDS011;6756;51.354;15.754;2023-05-29T16:26:51;4.60;;;3.10;;
13374;SDS011;6756;51.354;15.754;2023-05-29T16:30:55;4.53;;;2.47;;
13374;SDS011;6756;51.354;15.754;2023-05-29T16:34:59;6.00;;;3.00;;
13374;SDS011;6756;51.354;15.754;2023-05-29T16:39:00;5.63;;;3.60;;
13374;SDS011;6756;51.354;15.754;2023-05-29T16:43:01;5.13;;;3.20;;
13374;SDS011;6756;51.354;15.754;2023-05-29T16:47:02;5.60;;;3.63;;
13374;SDS011;6756;51.354;15.754;2023-05-29T16:51:07;5.43;;;3.43;;
13374;SDS011;6756;51.354;15.754;2023-05-29T16:55:08;9.50;;;5.00;;
13374;SDS011;6756;51.354;15.754;2023-05-29T16:59:12;6.17;;;3.23;;
13374;SDS011;6756;51.354;15.754;2023-05-29T17:03:14;5.10;;;2.70;;
13374;SDS011;6756;51.354;15.754;2023-05-29T17:07:15;5.13;;;3.23;;
13374;SDS011;6756;51.354;15.754;2023-05-29T17:11:16;5.30;;;2.70;;
13374;SDS011;6756;51.354;15.754;2023-05-29T17:15:17;5.27;;;2.90;;
13374;SDS011;6756;51.354;15.754;2023-05-29T17:19:18;4.20;;;3.00;;
13374;SDS011;6756;51.354;15.754;2023-05-29T17:23:28;3.70;;;2.70;;
13374;SDS011;6756;51.354;15.754;2023-05-29T17:27:30;3.43;;;2.50;;
13374;SDS011;6756;51.354;15.754;2023-05-29T17:31:31;5.13;;;2.73;;
13374;SDS011;6756;51.354;15.754;2023-05-29T17:35:32;3.63;;;2.60;;
13374;SDS011;6756;51.354;15.754;2023-05-29T17:39:33;6.20;;;3.27;;
13374;SDS011;6756;51.354;15.754;2023-05-29T17:43:34;3.93;;;3.20;;
13374;SDS011;6756;51.354;15.754;2023-05-29T17:47:35;5.50;;;3.30;;
13374;SDS011;6756;51.354;15.754;2023-05-29T17:51:36;8.70;;;2.80;;
13374;SDS011;6756;51.354;15.754;2023-05-29T17:55:39;4.00;;;2.70;;
13374;SDS011;6756;51.354;15.754;2023-05-29T17:59:40;6.40;;;3.87;;
13374;SDS011;6756;51.354;15.754;2023-05-29T18:03:41;10.07;;;5.20;;
13374;SDS011;6756;51.354;15.754;2023-05-29T18:07:42;7.57;;;4.10;;
13374;SDS011;6756;51.354;15.754;2023-05-29T18:11:43;9.17;;;6.10;;
13374;SDS011;6756;51.354;15.754;2023-05-29T18:15:44;5.07;;;3.70;;
13374;SDS011;6756;51.354;15.754;2023-05-29T18:19:48;4.27;;;3.67;;
13374;SDS011;6756;51.354;15.754;2023-05-29T18:23:55;3.93;;;3.00;;
13374;SDS011;6756;51.354;15.754;2023-05-29T18:27:56;5.33;;;3.00;;
13374;SDS011;6756;51.354;15.754;2023-05-29T18:32:00;4.23;;;3.13;;
13374;SDS011;6756;51.354;15.754;2023-05-29T18:36:01;9.60;;;6.00;;
13374;SDS011;6756;51.354;15.754;2023-05-29T18:40:02;7.77;;;5.40;;
13374;SDS011;6756;51.354;15.754;2023-05-29T18:44:04;8.40;;;4.90;;
13374;SDS011;6756;51.354;15.754;2023-05-29T18:48:05;7.50;;;4.17;;
13374;SDS011;6756;51.354;15.754;2023-05-29T18:52:06;4.47;;;3.40;;
13374;SDS011;6756;51.354;15.754;2023-05-29T18:56:07;4.50;;;3.30;;
13374;SDS011;6756;51.354;15.754;2023-05-29T19:00:08;7.13;;;3.77;;
13374;SDS011;6756;51.354;15.754;2023-05-29T19:04:10;5.33;;;3.50;;
13374;SDS011;6756;51.354;15.754;2023-05-29T19:08:15;3.97;;;3.37;;
13374;SDS011;6756;51.354;15.754;2023-05-29T19:12:17;4.37;;;3.10;;
13374;SDS011;6756;51.354;15.754;2023-05-29T19:16:19;4.77;;;3.60;;
13374;SDS011;6756;51.354;15.754;2023-05-29T19:20:21;5.70;;;4.33;;
13374;SDS011;6756;51.354;15.754;2023-05-29T19:24:22;5.17;;;4.20;;
13374;SDS011;6756;51.354;15.754;2023-05-29T19:28:23;5.83;;;4.43;;
13374;SDS011;6756;51.354;15.754;2023-05-29T19:32:24;7.03;;;4.70;;
13374;SDS011;6756;51.354;15.754;2023-05-29T19:36:27;7.50;;;5.00;;
13374;SDS011;6756;51.354;15.754;2023-05-29T19:40:29;5.40;;;4.20;;
13374;SDS011;6756;51.354;15.754;2023-05-29T19:44:30;5.13;;;4.17;;
13374;SDS011;6756;51.354;15.754;2023-05-29T19:48:36;6.27;;;4.20;;
13374;SDS011;6756;51.354;15.754;2023-05-29T19:52:38;5.47;;;4.07;;
13374;SDS011;6756;51.354;15.754;2023-05-29T19:56:42;7.50;;;4.27;;
13374;SDS011;6756;51.354;15.754;2023-05-29T20:00:43;6.07;;;4.53;;
13374;SDS011;6756;51.354;15.754;2023-05-29T20:04:44;7.00;;;4.47;;
13374;SDS011;6756;51.354;15.754;2023-05-29T20:08:45;5.70;;;4.43;;
13374;SDS011;6756;51.354;15.754;2023-05-29T20:12:46;4.23;;;3.67;;
13374;SDS011;6756;51.354;15.754;2023-05-29T20:16:51;4.43;;;3.40;;
13374;SDS011;6756;51.354;15.754;2023-05-29T20:20:52;5.43;;;3.77;;
13374;SDS011;6756;51.354;15.754;2023-05-29T20:24:53;5.67;;;3.80;;
13374;SDS011;6756;51.354;15.754;2023-05-29T20:28:54;6.00;;;4.10;;
13374;SDS011;6756;51.354;15.754;2023-05-29T20:32:56;4.80;;;4.10;;
13374;SDS011;6756;51.354;15.754;2023-05-29T20:36:59;6.20;;;3.73;;
13374;SDS011;6756;51.354;15.754;2023-05-29T20:41:01;4.77;;;3.90;;
13374;SDS011;6756;51.354;15.754;2023-05-29T20:45:05;5.40;;;3.97;;
13374;SDS011;6756;51.354;15.754;2023-05-29T20:49:07;5.17;;;3.70;;
13374;SDS011;6756;51.354;15.754;2023-05-29T20:53:08;4.80;;;3.43;;
13374;SDS011;6756;51.354;15.754;2023-05-29T20:57:10;3.80;;;3.10;;
13374;SDS011;6756;51.354;15.754;2023-05-29T21:01:16;3.70;;;2.90;;
13374;SDS011;6756;51.354;15.754;2023-05-29T21:05:21;4.83;;;3.33;;
13374;SDS011;6756;51.354;15.754;2023-05-29T21:09:23;3.57;;;3.27;;
13374;SDS011;6756;51.354;15.754;2023-05-29T21:13:25;4.67;;;3.43;;
13374;SDS011;6756;51.354;15.754;2023-05-29T21:17:26;5.27;;;3.50;;
13374;SDS011;6756;51.354;15.754;2023-05-29T21:21:30;4.37;;;3.40;;
13374;SDS011;6756;51.354;15.754;2023-05-29T21:25:32;4.80;;;2.97;;
13374;SDS011;6756;51.354;15.754;2023-05-29T21:29:36;4.03;;;3.13;;
13374;SDS011;6756;51.354;15.754;2023-05-29T21:33:39;4.10;;;2.93;;
13374;SDS011;6756;51.354;15.754;2023-05-29T21:37:45;3.60;;;3.00;;
13374;SDS011;6756;51.354;15.754;2023-05-29T21:41:46;3.00;;;2.70;;
13374;SDS011;6756;51.354;15.754;2023-05-29T21:45:51;3.53;;;2.80;;
13374;SDS011;6756;51.354;15.754;2023-05-29T21:49:52;4.23;;;2.90;;
13374;SDS011;6756;51.354;15.754;2023-05-29T21:53:56;3.33;;;2.73;;
13374;SDS011;6756;51.354;15.754;2023-05-29T21:57:57;3.43;;;2.83;;
13374;SDS011;6756;51.354;15.754;2023-05-29T22:02:01;4.33;;;2.93;;
13374;SDS011;6756;51.354;15.754;2023-05-29T22:06:02;3.50;;;3.07;;
13374;SDS011;6756;51.354;15.754;2023-05-29T22:10:05;3.77;;;2.83;;
13374;SDS011;6756;51.354;15.754;2023-05-29T22:14:09;4.90;;;3.03;;
13374;SDS011;6756;51.354;15.754;2023-05-29T22:18:10;4.63;;;3.27;;
13374;SDS011;6756;51.354;15.754;2023-05-29T22:22:11;3.40;;;2.70;;
13374;SDS011;6756;51.354;15.754;2023-05-29T22:26:12;3.40;;;2.70;;
13374;SDS011;6756;51.354;15.754;2023-05-29T22:30:16;3.50;;;2.90;;
13374;SDS011;6756;51.354;15.754;2023-05-29T22:34:18;3.53;;;2.77;;
13374;SDS011;6756;51.354;15.754;2023-05-29T22:38:20;3.43;;;2.93;;
13374;SDS011;6756;51.354;15.754;2023-05-29T22:42:21;4.00;;;3.13;;
13374;SDS011;6756;51.354;15.754;2023-05-29T22:46:28;4.00;;;3.50;;
13374;SDS011;6756;51.354;15.754;2023-05-29T22:50:29;3.57;;;3.00;;
13374;SDS011;6756;51.354;15.754;2023-05-29T22:54:30;3.47;;;3.10;;
13374;SDS011;6756;51.354;15.754;2023-05-29T22:58:30;4.17;;;3.57;;
13374;SDS011;6756;51.354;15.754;2023-05-29T23:02:31;3.33;;;3.03;;
13374;SDS011;6756;51.354;15.754;2023-05-29T23:06:35;4.10;;;3.30;;
13374;SDS011;6756;51.354;15.754;2023-05-29T23:10:36;3.50;;;2.93;;
13374;SDS011;6756;51.354;15.754;2023-05-29T23:14:37;3.33;;;2.90;;
13374;SDS011;6756;51.354;15.754;2023-05-29T23:18:38;5.33;;;2.87;;
13374;SDS011;6756;51.354;15.754;2023-05-29T23:22:39;3.20;;;2.70;;
13374;SDS011;6756;51.354;15.754;2023-05-29T23:26:40;3.47;;;2.87;;
13374;SDS011;6756;51.354;15.754;2023-05-29T23:30:40;3.70;;;2.93;;
13374;SDS011;6756;51.354;15.754;2023-05-29T23:34:41;4.70;;;3.47;;
13374;SDS011;6756;51.354;15.754;2023-05-29T23:38:42;3.43;;;3.00;;
13374;SDS011;6756;51.354;15.754;2023-05-29T23:42:50;5.93;;;3.20;;
13374;SDS011;6756;51.354;15.754;2023-05-29T23:46:51;5.63;;;3.70;;
13374;SDS011;6756;51.354;15.754;2023-05-29T23:50:52;4.63;;;3.77;;
13374;SDS011;6756;51.354;15.754;2023-05-29T23:55:01;3.77;;;3.47;;
13374;SDS011;6756;51.354;15.754;2023-05-29T23:59:03;4.03;;;3.30;;
